createdAt,value
2023-03-06T00:00:19.108Z,2.97
2023-03-06T00:01:19.090Z,2.95
2023-03-06T00:02:19.053Z,2.97
2023-03-06T00:03:19.069Z,2.97
2023-03-06T00:04:19.033Z,2.95
2023-03-06T00:05:19.028Z,2.93
2023-03-06T00:06:19.025Z,2.95
2023-03-06T00:07:19.014Z,2.97
2023-03-06T00:08:19.002Z,2.97
2023-03-06T00:09:18.989Z,2.95
2023-03-06T00:10:18.976Z,2.93
2023-03-06T00:11:18.959Z,2.92
2023-03-06T00:12:19.000Z,2.92
2023-03-06T00:13:18.941Z,2.93
2023-03-06T00:14:18.939Z,2.93
2023-03-06T00:15:18.912Z,2.93
2023-03-06T00:16:18.959Z,2.93
2023-03-06T00:17:18.888Z,2.93
2023-03-06T00:18:18.919Z,2.92
2023-03-06T00:19:18.878Z,2.92
2023-03-06T00:20:18.856Z,2.93
2023-03-06T00:21:18.846Z,2.93
2023-03-06T00:22:18.837Z,2.95
2023-03-06T00:23:18.840Z,2.93
2023-03-06T00:24:18.868Z,2.92
2023-03-06T00:25:18.828Z,2.92
2023-03-06T00:26:18.811Z,2.92
2023-03-06T00:27:18.804Z,2.93
2023-03-06T00:28:18.801Z,2.92
2023-03-06T00:29:18.778Z,2.93
2023-03-06T00:30:18.797Z,2.93
2023-03-06T00:31:18.801Z,2.93
2023-03-06T00:32:18.822Z,2.92
2023-03-06T00:33:18.722Z,2.93
2023-03-06T00:34:18.726Z,2.93
2023-03-06T00:35:18.791Z,2.95
2023-03-06T00:36:18.707Z,2.93
2023-03-06T00:37:18.701Z,2.95
2023-03-06T00:38:18.674Z,2.93
2023-03-06T00:39:18.673Z,2.92
2023-03-06T00:40:18.681Z,2.95
2023-03-06T00:41:18.689Z,2.93
2023-03-06T00:42:18.666Z,2.97
2023-03-06T00:43:18.623Z,2.97
2023-03-06T00:44:18.628Z,2.95
2023-03-06T00:45:18.620Z,2.97
2023-03-06T00:46:18.618Z,2.93
2023-03-06T00:47:18.597Z,2.93
2023-03-06T00:48:18.595Z,2.92
2023-03-06T00:49:18.570Z,2.90
2023-03-06T00:50:18.582Z,2.89
2023-03-06T00:51:18.568Z,2.89
2023-03-06T00:52:18.568Z,2.87
2023-03-06T00:53:18.539Z,2.90
2023-03-06T00:54:18.530Z,2.89
2023-03-06T00:55:18.512Z,2.86
2023-03-06T00:56:19.957Z,2.85
2023-03-06T00:57:18.490Z,2.82
2023-03-06T00:58:18.506Z,2.80
2023-03-06T00:59:18.473Z,2.82
2023-03-06T01:00:18.465Z,2.82
2023-03-06T01:01:18.465Z,2.82
2023-03-06T01:02:18.485Z,2.85
2023-03-06T01:03:18.431Z,2.83
2023-03-06T01:04:18.443Z,2.80
2023-03-06T01:05:18.406Z,2.80
2023-03-06T01:06:18.404Z,2.77
2023-03-06T01:07:18.413Z,2.80
2023-03-06T01:08:18.389Z,2.79
2023-03-06T01:09:18.377Z,2.79
2023-03-06T01:10:18.372Z,2.79
2023-03-06T01:11:18.342Z,2.82
2023-03-06T01:12:18.367Z,2.80
2023-03-06T01:13:18.309Z,2.80
2023-03-06T01:14:18.311Z,2.82
2023-03-06T01:15:18.316Z,2.82
2023-03-06T01:16:18.312Z,2.79
2023-03-06T01:17:18.299Z,2.82
2023-03-06T01:18:18.321Z,2.82
2023-03-06T01:19:18.263Z,2.82
2023-03-06T01:20:18.249Z,2.83
2023-03-06T01:21:18.238Z,2.82
2023-03-06T01:22:18.224Z,2.82
2023-03-06T01:23:18.211Z,2.82
2023-03-06T01:24:18.255Z,2.83
2023-03-06T01:25:18.192Z,2.80
2023-03-06T01:26:18.190Z,2.80
2023-03-06T01:27:18.184Z,2.77
2023-03-06T01:28:18.188Z,2.75
2023-03-06T01:29:18.177Z,2.74
2023-03-06T01:30:18.191Z,2.75
2023-03-06T01:31:18.204Z,2.72
2023-03-06T01:32:18.190Z,2.74
2023-03-06T01:33:18.119Z,2.74
2023-03-06T01:34:18.120Z,2.71
2023-03-06T01:35:18.127Z,2.71
2023-03-06T01:36:18.114Z,2.74
2023-03-06T01:37:18.078Z,2.74
2023-03-06T01:38:18.062Z,2.72
2023-03-06T01:39:18.064Z,2.74
2023-03-06T01:40:18.045Z,2.75
2023-03-06T01:41:18.064Z,2.75
2023-03-06T01:42:18.022Z,2.74
2023-03-06T01:43:18.023Z,2.75
2023-03-06T01:44:18.024Z,2.77
2023-03-06T01:45:18.012Z,2.77
2023-03-06T01:46:18.030Z,2.74
2023-03-06T01:47:17.970Z,2.72
2023-03-06T01:48:17.975Z,2.74
2023-03-06T01:49:17.972Z,2.72
2023-03-06T01:50:17.946Z,2.74
2023-03-06T01:51:17.939Z,2.75
2023-03-06T01:52:17.972Z,2.74
2023-03-06T01:53:17.918Z,2.74
2023-03-06T01:54:17.924Z,2.74
2023-03-06T01:55:17.912Z,2.77
2023-03-06T01:56:17.899Z,2.75
2023-03-06T01:57:17.912Z,2.75
2023-03-06T01:58:17.880Z,2.72
2023-03-06T01:59:17.845Z,2.72
2023-03-06T02:00:17.852Z,2.71
2023-03-06T02:01:17.912Z,2.72
2023-03-06T02:02:17.879Z,2.72
2023-03-06T02:03:18.080Z,2.72
2023-03-06T02:04:17.843Z,2.72
2023-03-06T02:05:17.799Z,2.74
2023-03-06T02:06:17.784Z,2.72
2023-03-06T02:07:17.782Z,2.75
2023-03-06T02:08:17.810Z,2.75
2023-03-06T02:09:17.780Z,2.74
2023-03-06T02:10:17.760Z,2.75
2023-03-06T02:11:17.857Z,2.77
2023-03-06T02:12:17.747Z,2.75
2023-03-06T02:13:17.736Z,2.77
2023-03-06T02:14:17.749Z,2.74
2023-03-06T02:15:17.705Z,2.75
2023-03-06T02:16:17.796Z,2.74
2023-03-06T02:17:17.686Z,2.72
2023-03-06T02:18:17.673Z,2.71
2023-03-06T02:19:17.671Z,2.69
2023-03-06T02:20:17.702Z,2.68
2023-03-06T02:21:17.655Z,2.67
2023-03-06T02:22:17.647Z,2.67
2023-03-06T02:23:17.616Z,2.65
2023-03-06T02:24:17.639Z,2.67
2023-03-06T02:25:17.603Z,2.64
2023-03-06T02:26:17.627Z,2.62
2023-03-06T02:27:17.577Z,2.62
2023-03-06T02:28:17.644Z,2.67
2023-03-06T02:29:17.565Z,2.64
2023-03-06T02:30:17.552Z,2.65
2023-03-06T02:31:17.604Z,2.67
2023-03-06T02:32:17.556Z,2.67
2023-03-06T02:33:17.525Z,2.65
2023-03-06T02:34:17.539Z,2.65
2023-03-06T02:35:17.558Z,2.64
2023-03-06T02:36:17.513Z,2.67
2023-03-06T02:37:17.482Z,2.65
2023-03-06T02:38:17.477Z,2.62
2023-03-06T02:39:17.461Z,2.64
2023-03-06T02:40:17.431Z,2.65
2023-03-06T02:41:17.490Z,2.64
2023-03-06T02:42:17.433Z,2.65
2023-03-06T02:43:17.402Z,2.62
2023-03-06T02:44:17.389Z,2.62
2023-03-06T02:45:17.395Z,2.64
2023-03-06T02:46:17.421Z,2.65
2023-03-06T02:47:17.356Z,2.62
2023-03-06T02:48:17.344Z,2.67
2023-03-06T02:49:17.337Z,2.64
2023-03-06T02:50:17.349Z,2.65
2023-03-06T02:51:17.302Z,2.65
2023-03-06T02:52:17.316Z,2.65
2023-03-06T02:53:17.295Z,2.64
2023-03-06T02:54:17.283Z,2.64
2023-03-06T02:55:17.274Z,2.65
2023-03-06T02:56:17.297Z,2.62
2023-03-06T02:57:17.263Z,2.62
2023-03-06T02:58:17.250Z,2.64
2023-03-06T02:59:17.238Z,2.62
2023-03-06T03:00:17.231Z,2.62
2023-03-06T03:01:17.273Z,2.60
2023-03-06T03:02:17.218Z,2.56
2023-03-06T03:03:17.195Z,2.57
2023-03-06T03:04:17.206Z,2.60
2023-03-06T03:05:17.158Z,2.54
2023-03-06T03:06:17.165Z,2.53
2023-03-06T03:07:17.170Z,2.49
2023-03-06T03:08:17.135Z,2.51
2023-03-06T03:09:17.113Z,2.50
2023-03-06T03:10:17.107Z,2.50
2023-03-06T03:11:17.126Z,2.47
2023-03-06T03:12:17.113Z,2.47
2023-03-06T03:13:17.125Z,2.46
2023-03-06T03:14:17.082Z,2.42
2023-03-06T03:15:17.074Z,2.39
2023-03-06T03:16:17.146Z,2.35
2023-03-06T03:17:17.051Z,2.35
2023-03-06T03:18:17.074Z,2.32
2023-03-06T03:19:17.019Z,2.33
2023-03-06T03:20:17.018Z,2.32
2023-03-06T03:21:17.021Z,2.31
2023-03-06T03:22:16.983Z,2.28
2023-03-06T03:23:16.988Z,2.26
2023-03-06T03:24:17.045Z,2.28
2023-03-06T03:25:16.973Z,2.31
2023-03-06T03:26:16.977Z,2.29
2023-03-06T03:27:16.934Z,2.31
2023-03-06T03:28:16.934Z,2.33
2023-03-06T03:29:16.911Z,2.32
2023-03-06T03:30:16.964Z,2.32
2023-03-06T03:31:16.915Z,2.33
2023-03-06T03:32:16.924Z,2.35
2023-03-06T03:33:16.872Z,2.36
2023-03-06T03:34:16.880Z,2.39
2023-03-06T03:35:16.867Z,2.38
2023-03-06T03:36:16.902Z,2.38
2023-03-06T03:37:16.838Z,2.42
2023-03-06T03:38:16.845Z,2.42
2023-03-06T03:39:16.821Z,2.39
2023-03-06T03:40:16.844Z,2.38
2023-03-06T03:41:16.802Z,2.39
2023-03-06T03:42:16.858Z,2.36
2023-03-06T03:43:16.771Z,2.33
2023-03-06T03:44:16.770Z,2.33
2023-03-06T03:45:16.772Z,2.35
2023-03-06T03:46:16.789Z,2.35
2023-03-06T03:47:16.729Z,2.35
2023-03-06T03:48:16.765Z,2.33
2023-03-06T03:49:16.718Z,2.36
2023-03-06T03:50:16.716Z,2.35
2023-03-06T03:51:16.710Z,2.35
2023-03-06T03:52:16.705Z,2.38
2023-03-06T03:53:16.687Z,2.42
2023-03-06T03:54:16.711Z,2.42
2023-03-06T03:55:16.644Z,2.43
2023-03-06T03:56:16.655Z,2.43
2023-03-06T03:57:16.640Z,2.46
2023-03-06T03:58:16.632Z,2.44
2023-03-06T03:59:16.611Z,2.44
2023-03-06T04:00:16.737Z,2.46
2023-03-06T04:01:16.602Z,2.49
2023-03-06T04:02:16.636Z,2.44
2023-03-06T04:03:16.582Z,2.44
2023-03-06T04:04:16.575Z,2.43
2023-03-06T04:05:16.595Z,2.46
2023-03-06T04:06:16.544Z,2.46
2023-03-06T04:07:16.514Z,2.47
2023-03-06T04:08:16.514Z,2.46
2023-03-06T04:09:16.498Z,2.44
2023-03-06T04:10:16.548Z,2.46
2023-03-06T04:11:16.476Z,2.42
2023-03-06T04:12:16.483Z,2.38
2023-03-06T04:13:16.466Z,2.42
2023-03-06T04:14:16.480Z,2.39
2023-03-06T04:15:16.453Z,2.39
2023-03-06T04:16:16.510Z,2.36
2023-03-06T04:17:16.441Z,2.35
2023-03-06T04:18:16.427Z,2.32
2023-03-06T04:19:16.406Z,2.32
2023-03-06T04:20:16.429Z,2.33
2023-03-06T04:21:16.424Z,2.29
2023-03-06T04:22:16.395Z,2.29
2023-03-06T04:23:16.354Z,2.29
2023-03-06T04:24:16.347Z,2.31
2023-03-06T04:25:16.337Z,2.28
2023-03-06T04:26:16.334Z,2.26
2023-03-06T04:27:16.371Z,2.26
2023-03-06T04:28:16.337Z,2.25
2023-03-06T04:29:16.325Z,2.25
2023-03-06T04:30:16.320Z,2.24
2023-03-06T04:31:16.315Z,2.24
2023-03-06T04:32:16.304Z,2.20
2023-03-06T04:33:16.308Z,2.20
2023-03-06T04:34:16.303Z,2.20
2023-03-06T04:35:16.238Z,2.22
2023-03-06T04:36:16.233Z,2.24
2023-03-06T04:37:16.234Z,2.22
2023-03-06T04:38:16.222Z,2.22
2023-03-06T04:39:16.224Z,2.22
2023-03-06T04:40:16.242Z,2.20
2023-03-06T04:41:16.202Z,2.15
2023-03-06T04:42:16.198Z,2.14
2023-03-06T04:43:16.177Z,2.14
2023-03-06T04:44:16.174Z,2.14
2023-03-06T04:45:16.160Z,2.15
2023-03-06T04:46:16.380Z,2.14
2023-03-06T04:47:18.714Z,2.15
2023-03-06T04:48:16.122Z,2.11
2023-03-06T04:49:16.107Z,2.11
2023-03-06T04:50:16.095Z,2.11
2023-03-06T04:51:16.095Z,2.13
2023-03-06T04:52:16.115Z,2.11
2023-03-06T04:53:16.064Z,2.10
2023-03-06T04:54:18.004Z,2.13
2023-03-06T04:55:16.049Z,2.11
2023-03-06T04:56:16.055Z,2.13
2023-03-06T04:57:16.050Z,2.13
2023-03-06T04:58:16.059Z,2.13
2023-03-06T04:59:16.010Z,2.14
2023-03-06T05:00:16.002Z,2.11
2023-03-06T05:01:16.068Z,2.13
2023-03-06T05:02:16.048Z,2.06
2023-03-06T05:03:15.971Z,2.10
2023-03-06T05:04:15.979Z,2.08
2023-03-06T05:05:15.935Z,2.10
2023-03-06T05:06:15.935Z,2.10
2023-03-06T05:07:15.923Z,2.07
2023-03-06T05:08:15.918Z,2.06
2023-03-06T05:09:15.903Z,2.06
2023-03-06T05:10:15.928Z,2.04
2023-03-06T05:11:15.884Z,2.04
2023-03-06T05:12:15.889Z,2.02
2023-03-06T05:13:15.871Z,1.99
2023-03-06T05:14:15.879Z,1.99
2023-03-06T05:15:15.856Z,1.99
2023-03-06T05:16:15.931Z,2.00
2023-03-06T05:17:15.833Z,2.00
2023-03-06T05:18:15.837Z,1.99
2023-03-06T05:19:15.789Z,1.94
2023-03-06T05:20:15.792Z,1.92
2023-03-06T05:21:15.794Z,1.89
2023-03-06T05:22:15.780Z,1.85
2023-03-06T05:23:15.745Z,1.84
2023-03-06T05:24:15.739Z,1.77
2023-03-06T05:25:15.727Z,1.77
2023-03-06T05:26:15.728Z,1.78
2023-03-06T05:27:16.953Z,1.77
2023-03-06T05:28:15.712Z,1.77
2023-03-06T05:29:15.711Z,1.78
2023-03-06T05:30:15.708Z,1.80
2023-03-06T05:31:15.661Z,1.81
2023-03-06T05:32:15.716Z,1.78
2023-03-06T05:33:15.641Z,1.76
2023-03-06T05:34:15.660Z,1.74
2023-03-06T05:35:15.633Z,1.73
2023-03-06T05:36:15.614Z,1.71
2023-03-06T05:37:15.620Z,1.74
2023-03-06T05:38:15.632Z,1.73
2023-03-06T05:39:15.612Z,1.74
2023-03-06T05:40:15.576Z,1.71
2023-03-06T05:41:15.589Z,1.70
2023-03-06T05:42:15.565Z,1.70
2023-03-06T05:43:15.571Z,1.73
2023-03-06T05:44:15.561Z,1.76
2023-03-06T05:45:15.538Z,1.77
2023-03-06T05:46:15.596Z,1.76
2023-03-06T05:47:15.507Z,1.74
2023-03-06T05:48:15.528Z,1.76
2023-03-06T05:49:15.483Z,1.76
2023-03-06T05:50:15.481Z,1.77
2023-03-06T05:51:15.482Z,1.77
2023-03-06T05:52:15.471Z,1.73
2023-03-06T05:53:15.495Z,1.73
2023-03-06T05:54:15.452Z,1.76
2023-03-06T05:55:15.446Z,1.74
2023-03-06T05:56:15.433Z,1.76
2023-03-06T05:57:15.418Z,1.76
2023-03-06T05:58:15.400Z,1.78
2023-03-06T05:59:15.393Z,1.78
2023-03-06T06:00:15.379Z,1.78
2023-03-06T06:01:15.353Z,1.78
2023-03-06T06:02:15.420Z,1.81
2023-03-06T06:03:15.394Z,1.77
2023-03-06T06:04:15.359Z,1.77
2023-03-06T06:05:15.337Z,1.74
2023-03-06T06:06:15.316Z,1.77
2023-03-06T06:07:15.294Z,1.76
2023-03-06T06:08:15.290Z,1.78
2023-03-06T06:09:15.273Z,1.76
2023-03-06T06:10:15.305Z,1.76
2023-03-06T06:11:15.256Z,1.76
2023-03-06T06:12:15.253Z,1.78
2023-03-06T06:13:15.238Z,1.81
2023-03-06T06:14:15.231Z,1.80
2023-03-06T06:15:15.227Z,1.78
2023-03-06T06:16:15.295Z,1.80
2023-03-06T06:17:15.206Z,1.74
2023-03-06T06:18:15.209Z,1.73
2023-03-06T06:19:15.190Z,1.73
2023-03-06T06:20:15.181Z,1.71
2023-03-06T06:21:15.171Z,1.73
2023-03-06T06:22:15.175Z,1.76
2023-03-06T06:23:15.135Z,1.76
2023-03-06T06:24:15.116Z,1.71
2023-03-06T06:25:15.115Z,1.68
2023-03-06T06:26:15.098Z,1.68
2023-03-06T06:27:15.110Z,1.67
2023-03-06T06:28:15.078Z,1.68
2023-03-06T06:29:15.056Z,1.63
2023-03-06T06:30:15.053Z,1.67
2023-03-06T06:31:15.204Z,1.68
2023-03-06T06:32:15.094Z,1.68
2023-03-06T06:33:15.095Z,1.70
2023-03-06T06:34:15.027Z,1.70
2023-03-06T06:35:15.017Z,1.74
2023-03-06T06:36:15.001Z,1.76
2023-03-06T06:37:14.983Z,1.76
2023-03-06T06:38:14.975Z,1.77
2023-03-06T06:39:14.981Z,1.80
2023-03-06T06:40:14.988Z,1.80
2023-03-06T06:42:30.954Z,1.84
2023-03-06T06:43:14.927Z,1.84
2023-03-06T06:44:14.929Z,1.78
2023-03-06T06:45:14.945Z,1.78
2023-03-06T06:46:49.727Z,1.78
2023-03-06T06:47:24.398Z,1.78
2023-03-06T06:48:16.702Z,1.80
2023-03-06T06:49:14.843Z,1.84
2023-03-06T06:50:14.885Z,1.87
2023-03-06T06:51:14.836Z,1.88
2023-03-06T06:52:14.841Z,1.89
2023-03-06T06:53:14.804Z,1.89
2023-03-06T06:54:14.807Z,1.87
2023-03-06T06:55:14.799Z,1.84
2023-03-06T06:56:14.829Z,1.85
2023-03-06T06:57:14.832Z,1.84
2023-03-06T06:58:14.781Z,1.85
2023-03-06T06:59:17.092Z,1.84
2023-03-06T07:00:14.761Z,1.85
2023-03-06T07:01:14.782Z,1.87
2023-03-06T07:02:14.773Z,1.89
2023-03-06T07:03:14.702Z,1.89
2023-03-06T07:04:14.835Z,1.89
2023-03-06T07:05:14.693Z,1.91
2023-03-06T07:06:14.677Z,1.89
2023-03-06T07:07:14.679Z,1.89
2023-03-06T07:08:14.704Z,1.89
2023-03-06T07:09:14.670Z,1.88
2023-03-06T07:10:14.643Z,1.91
2023-03-06T07:11:14.634Z,1.92
2023-03-06T07:12:14.623Z,1.95
2023-03-06T07:13:14.611Z,1.94
2023-03-06T07:14:14.988Z,2.00
2023-03-06T07:15:14.618Z,1.97
2023-03-06T07:16:14.626Z,2.02
2023-03-06T07:17:14.585Z,2.06
2023-03-06T07:18:14.547Z,2.07
2023-03-06T07:19:14.568Z,2.10
2023-03-06T07:20:14.587Z,2.15
2023-03-06T07:21:14.549Z,2.15
2023-03-06T07:22:14.518Z,2.20
2023-03-06T07:23:14.553Z,2.24
2023-03-06T07:24:14.520Z,2.22
2023-03-06T07:25:14.496Z,2.25
2023-03-06T07:26:14.532Z,2.22
2023-03-06T07:27:14.458Z,2.24
2023-03-06T07:28:14.504Z,2.24
2023-03-06T07:29:14.442Z,2.20
2023-03-06T07:30:14.426Z,2.25
2023-03-06T07:31:14.484Z,2.26
2023-03-06T07:32:14.539Z,2.31
2023-03-06T07:33:14.402Z,2.32
2023-03-06T07:34:14.388Z,2.32
2023-03-06T07:35:22.014Z,2.33
2023-03-06T07:36:14.453Z,2.35
2023-03-06T07:37:14.389Z,2.32
2023-03-06T07:38:14.370Z,2.26
2023-03-06T07:39:14.345Z,2.29
2023-03-06T07:40:14.315Z,2.31
2023-03-06T07:41:14.343Z,2.32
2023-03-06T07:42:14.306Z,2.32
2023-03-06T07:43:19.424Z,2.33
2023-03-06T07:44:14.297Z,2.32
2023-03-06T07:45:14.287Z,2.33
2023-03-06T07:46:14.357Z,2.32
2023-03-06T07:47:14.297Z,2.32
2023-03-06T07:48:14.256Z,2.29
2023-03-06T07:49:14.271Z,2.29
2023-03-06T07:50:14.235Z,2.31
2023-03-06T07:51:14.209Z,2.31
2023-03-06T07:52:14.198Z,2.32
2023-03-06T07:53:14.186Z,2.32
2023-03-06T07:54:14.180Z,2.36
2023-03-06T07:55:14.217Z,2.38
2023-03-06T07:56:14.162Z,2.44
2023-03-06T07:57:14.149Z,2.43
2023-03-06T07:58:14.163Z,2.43
2023-03-06T07:59:14.155Z,2.49
2023-03-06T08:00:14.178Z,2.47
2023-03-06T08:01:14.142Z,2.47
2023-03-06T08:02:14.117Z,2.43
2023-03-06T08:03:14.159Z,2.39
2023-03-06T08:04:14.183Z,2.38
2023-03-06T08:05:14.091Z,2.36
2023-03-06T08:06:14.092Z,2.36
2023-03-06T08:07:14.090Z,2.38
2023-03-06T08:08:14.030Z,2.38
2023-03-06T08:09:14.031Z,2.36
2023-03-06T08:10:14.020Z,2.39
2023-03-06T08:11:14.018Z,2.43
2023-03-06T08:12:15.779Z,2.42
2023-03-06T08:13:14.021Z,2.44
2023-03-06T08:14:13.974Z,2.44
2023-03-06T08:15:13.970Z,2.46
2023-03-06T08:16:14.058Z,2.47
2023-03-06T08:17:13.932Z,2.49
2023-03-06T08:18:13.918Z,2.49
2023-03-06T08:19:13.930Z,2.49
2023-03-06T08:20:13.910Z,2.54
2023-03-06T08:21:13.908Z,2.53
2023-03-06T08:22:13.889Z,2.51
2023-03-06T08:23:13.883Z,2.56
2023-03-06T08:24:13.928Z,2.51
2023-03-06T08:25:13.875Z,2.50
2023-03-06T08:26:13.860Z,2.49
2023-03-06T08:27:13.840Z,2.47
2023-03-06T08:28:13.836Z,2.44
2023-03-06T08:29:13.830Z,2.44
2023-03-06T08:30:13.841Z,2.39
2023-03-06T08:31:13.845Z,2.43
2023-03-06T08:32:13.815Z,2.43
2023-03-06T08:33:13.762Z,2.46
2023-03-06T08:34:13.756Z,2.49
2023-03-06T08:35:13.763Z,2.50
2023-03-06T08:36:13.760Z,2.50
2023-03-06T08:37:13.771Z,2.51
2023-03-06T08:38:13.708Z,2.51
2023-03-06T08:39:13.713Z,2.53
2023-03-06T08:40:13.714Z,2.50
2023-03-06T08:41:13.702Z,2.53
2023-03-06T08:42:13.729Z,2.56
2023-03-06T08:43:14.307Z,2.56
2023-03-06T08:44:13.657Z,2.60
2023-03-06T08:45:13.639Z,2.61
2023-03-06T08:46:13.636Z,2.50
2023-03-06T08:47:13.642Z,2.49
2023-03-06T08:48:13.679Z,2.46
2023-03-06T08:49:13.621Z,2.43
2023-03-06T08:50:13.593Z,2.47
2023-03-06T08:51:13.606Z,2.50
2023-03-06T08:52:13.572Z,2.53
2023-03-06T08:53:13.581Z,2.51
2023-03-06T08:54:13.576Z,2.54
2023-03-06T08:55:15.078Z,2.54
2023-03-06T08:56:13.518Z,2.60
2023-03-06T08:57:13.529Z,2.65
2023-03-06T08:58:13.518Z,2.68
2023-03-06T08:59:13.527Z,2.74
2023-03-06T09:00:13.475Z,2.77
2023-03-06T09:01:13.529Z,2.83
2023-03-06T09:02:13.486Z,2.87
2023-03-06T09:03:13.464Z,2.90
2023-03-06T09:04:13.449Z,2.92
2023-03-06T09:05:13.462Z,2.93
2023-03-06T09:06:13.452Z,2.97
2023-03-06T09:07:13.424Z,3.01
2023-03-06T09:08:13.419Z,3.00
2023-03-06T09:09:13.461Z,3.04
2023-03-06T09:10:13.402Z,3.01
2023-03-06T09:11:13.407Z,3.04
2023-03-06T09:12:13.354Z,3.07
2023-03-06T09:13:13.346Z,3.08
2023-03-06T09:14:13.352Z,3.08
2023-03-06T09:15:13.329Z,3.05
2023-03-06T09:16:13.366Z,3.03
2023-03-06T09:17:13.348Z,3.00
2023-03-06T09:18:13.291Z,2.98
2023-03-06T09:19:13.307Z,2.97
2023-03-06T09:20:13.293Z,2.97
2023-03-06T09:21:13.286Z,3.00
2023-03-06T09:22:13.671Z,3.01
2023-03-06T09:23:13.255Z,3.00
2023-03-06T09:24:13.247Z,3.01
2023-03-06T09:25:13.255Z,2.93
2023-03-06T09:26:13.229Z,2.87
2023-03-06T09:27:13.211Z,2.85
2023-03-06T09:28:13.216Z,2.85
2023-03-06T09:29:13.248Z,2.85
2023-03-06T09:30:13.180Z,2.86
2023-03-06T09:31:13.272Z,2.89
2023-03-06T09:32:13.229Z,2.92
2023-03-06T09:33:13.139Z,2.92
2023-03-06T09:34:13.150Z,2.90
2023-03-06T09:35:13.135Z,2.86
2023-03-06T09:36:13.126Z,2.86
2023-03-06T09:37:13.123Z,2.80
2023-03-06T09:38:13.099Z,2.77
2023-03-06T09:39:13.120Z,2.72
2023-03-06T09:40:13.071Z,2.74
2023-03-06T09:41:13.084Z,2.74
2023-03-06T09:42:13.056Z,2.75
2023-03-06T09:43:13.046Z,2.72
2023-03-06T09:44:13.049Z,2.72
2023-03-06T09:45:13.036Z,2.74
2023-03-06T09:46:13.051Z,2.72
2023-03-06T09:47:13.004Z,2.68
2023-03-06T09:48:12.985Z,2.69
2023-03-06T09:49:13.005Z,2.69
2023-03-06T09:50:12.975Z,2.72
2023-03-06T09:51:12.958Z,2.75
2023-03-06T09:52:12.951Z,2.72
2023-03-06T09:53:12.921Z,2.68
2023-03-06T09:54:12.915Z,2.69
2023-03-06T09:55:12.942Z,2.69
2023-03-06T09:56:12.909Z,2.74
2023-03-06T09:57:12.917Z,2.75
2023-03-06T09:58:12.888Z,2.75
2023-03-06T09:59:12.946Z,2.69
2023-03-06T10:00:12.859Z,2.71
2023-03-06T10:01:12.863Z,2.75
2023-03-06T10:02:13.032Z,2.74
2023-03-06T10:03:12.993Z,2.74
2023-03-06T10:04:12.807Z,2.77
2023-03-06T10:05:12.879Z,2.77
2023-03-06T10:06:12.806Z,2.80
2023-03-06T10:07:12.775Z,2.71
2023-03-06T10:08:12.774Z,2.71
2023-03-06T10:09:12.753Z,2.72
2023-03-06T10:10:12.841Z,2.74
2023-03-06T10:11:12.747Z,2.74
2023-03-06T10:12:12.743Z,2.79
2023-03-06T10:13:12.723Z,2.80
2023-03-06T10:14:12.724Z,2.83
2023-03-06T10:15:12.714Z,2.80
2023-03-06T10:16:12.824Z,2.85
2023-03-06T10:17:12.677Z,2.89
2023-03-06T10:18:12.665Z,2.90
2023-03-06T10:19:12.653Z,2.98
2023-03-06T10:20:12.648Z,2.97
2023-03-06T10:21:19.138Z,3.00
2023-03-06T10:22:12.641Z,3.01
2023-03-06T10:23:12.620Z,3.03
2023-03-06T10:24:12.620Z,3.07
2023-03-06T10:25:12.600Z,3.11
2023-03-06T10:26:12.622Z,3.18
2023-03-06T10:27:12.615Z,3.22
2023-03-06T10:28:12.591Z,3.26
2023-03-06T10:29:12.562Z,3.31
2023-03-06T10:30:12.531Z,3.29
2023-03-06T10:31:12.685Z,3.29
2023-03-06T10:32:12.559Z,3.25
2023-03-06T10:33:12.515Z,3.26
2023-03-06T10:34:12.491Z,3.26
2023-03-06T10:35:12.491Z,3.26
2023-03-06T10:36:12.526Z,3.26
2023-03-06T10:37:12.487Z,3.28
2023-03-06T10:38:12.481Z,3.28
2023-03-06T10:39:12.465Z,3.28
2023-03-06T10:40:12.535Z,3.31
2023-03-06T10:41:12.453Z,3.29
2023-03-06T10:42:12.442Z,3.31
2023-03-06T10:43:12.579Z,3.29
2023-03-06T10:44:12.400Z,3.29
2023-03-06T10:45:12.385Z,3.28
2023-03-06T10:46:12.418Z,3.28
2023-03-06T10:47:12.369Z,3.29
2023-03-06T10:48:12.373Z,3.25
2023-03-06T10:49:12.362Z,3.23
2023-03-06T10:50:12.354Z,3.19
2023-03-06T10:51:18.099Z,3.19
2023-03-06T10:52:12.331Z,3.16
2023-03-06T10:53:12.329Z,3.10
2023-03-06T10:54:12.303Z,3.05
2023-03-06T10:55:12.752Z,3.08
2023-03-06T10:56:12.271Z,3.10
2023-03-06T10:57:12.259Z,3.11
2023-03-06T10:58:12.234Z,3.13
2023-03-06T10:59:12.270Z,3.16
2023-03-06T11:00:12.338Z,3.19
2023-03-06T11:01:12.364Z,3.22
2023-03-06T11:02:12.215Z,3.28
2023-03-06T11:03:12.198Z,3.29
2023-03-06T11:04:12.219Z,3.32
2023-03-06T11:05:12.176Z,3.32
2023-03-06T11:06:13.090Z,3.28
2023-03-06T11:07:12.168Z,3.28
2023-03-06T11:08:12.147Z,3.31
2023-03-06T11:09:12.129Z,3.32
2023-03-06T11:10:12.118Z,3.36
2023-03-06T11:11:12.117Z,3.42
2023-03-06T11:12:12.133Z,3.42
2023-03-06T11:13:12.103Z,3.44
2023-03-06T11:14:12.085Z,3.48
2023-03-06T11:15:12.077Z,3.41
2023-03-06T11:16:12.133Z,3.37
2023-03-06T11:17:12.065Z,3.32
2023-03-06T11:18:12.109Z,3.36
2023-03-06T11:19:12.039Z,3.36
2023-03-06T11:20:12.037Z,3.34
2023-03-06T11:21:12.016Z,3.32
2023-03-06T11:22:12.022Z,3.32
2023-03-06T11:23:12.033Z,3.34
2023-03-06T11:24:11.988Z,3.31
2023-03-06T11:25:11.975Z,3.34
2023-03-06T11:26:11.964Z,3.34
2023-03-06T11:27:11.944Z,3.28
2023-03-06T11:28:11.938Z,3.21
2023-03-06T11:29:12.030Z,3.10
2023-03-06T11:30:11.909Z,2.97
2023-03-06T11:31:11.915Z,2.80
2023-03-06T11:32:11.981Z,2.46
2023-03-06T11:33:11.888Z,2.22
2023-03-06T11:34:11.888Z,2.06
2023-03-06T11:35:11.917Z,1.89
2023-03-06T11:36:11.875Z,1.81
2023-03-06T11:37:11.841Z,1.80
2023-03-06T11:38:11.850Z,1.78
2023-03-06T11:39:14.463Z,1.81
2023-03-06T11:40:11.962Z,1.81
2023-03-06T11:41:11.856Z,1.81
2023-03-06T11:42:11.782Z,1.78
2023-03-06T11:43:11.811Z,1.81
2023-03-06T11:44:11.774Z,1.85
2023-03-06T11:45:11.755Z,1.89
2023-03-06T11:46:11.753Z,1.87
2023-03-06T11:47:11.760Z,1.91
2023-03-06T11:48:11.736Z,1.92
2023-03-06T11:49:11.738Z,1.92
2023-03-06T11:50:11.716Z,1.95
2023-03-06T11:51:11.702Z,1.99
2023-03-06T11:52:11.705Z,2.00
2023-03-06T11:53:11.691Z,1.99
2023-03-06T11:54:11.659Z,2.02
2023-03-06T11:55:11.656Z,2.04
2023-03-06T11:56:11.647Z,2.07
2023-03-06T11:57:11.660Z,2.11
2023-03-06T11:58:11.672Z,2.14
2023-03-06T11:59:11.630Z,2.14
2023-03-06T12:00:11.627Z,2.18
2023-03-06T12:01:11.616Z,2.22
2023-03-06T12:02:11.699Z,2.26
2023-03-06T12:03:11.606Z,2.31
2023-03-06T12:04:11.590Z,2.31
2023-03-06T12:05:11.584Z,2.28
2023-03-06T12:06:11.548Z,2.32
2023-03-06T12:07:11.526Z,2.36
2023-03-06T12:08:11.526Z,2.36
2023-03-06T12:09:11.560Z,2.39
2023-03-06T12:10:11.511Z,2.44
2023-03-06T12:11:11.495Z,2.53
2023-03-06T12:12:11.489Z,2.57
2023-03-06T12:13:11.481Z,2.57
2023-03-06T12:14:11.477Z,2.62
2023-03-06T12:15:11.500Z,2.69
2023-03-06T12:16:11.503Z,2.72
2023-03-06T12:17:11.438Z,2.74
2023-03-06T12:18:11.426Z,2.79
2023-03-06T12:19:11.420Z,2.86
2023-03-06T12:20:11.416Z,2.90
2023-03-06T12:21:11.413Z,2.87
2023-03-06T12:22:11.381Z,2.89
2023-03-06T12:23:15.354Z,2.93
2023-03-06T12:24:11.353Z,3.04
2023-03-06T12:25:11.378Z,3.13
2023-03-06T12:26:11.344Z,3.21
2023-03-06T12:27:11.365Z,3.28
2023-03-06T12:28:11.340Z,3.34
2023-03-06T12:29:11.319Z,3.42
2023-03-06T12:30:11.308Z,3.51
2023-03-06T12:31:11.281Z,3.62
2023-03-06T12:32:11.488Z,3.76
2023-03-06T12:33:11.301Z,3.86
2023-03-06T12:34:11.258Z,3.96
2023-03-06T12:35:11.251Z,4.02
2023-03-06T12:36:11.239Z,4.02
2023-03-06T12:37:11.230Z,4.04
2023-03-06T12:38:11.231Z,4.08
2023-03-06T12:39:11.243Z,4.17
2023-03-06T12:40:11.205Z,4.30
2023-03-06T12:41:11.191Z,4.35
2023-03-06T12:42:17.802Z,4.42
2023-03-06T12:43:11.169Z,4.48
2023-03-06T12:44:11.181Z,4.58
2023-03-06T12:45:11.160Z,4.62
2023-03-06T12:46:11.188Z,4.60
2023-03-06T12:47:11.121Z,4.63
2023-03-06T12:48:11.122Z,4.62
2023-03-06T12:49:12.361Z,4.67
2023-03-06T12:50:11.089Z,4.68
2023-03-06T12:51:11.113Z,4.73
2023-03-06T12:52:12.394Z,4.77
2023-03-06T12:53:11.064Z,4.77
2023-03-06T12:54:11.068Z,4.78
2023-03-06T12:55:11.044Z,4.78
2023-03-06T12:56:11.042Z,4.78
2023-03-06T12:57:11.054Z,4.80
2023-03-06T12:58:11.011Z,4.78
2023-03-06T12:59:10.999Z,4.86
2023-03-06T13:00:10.997Z,4.87
2023-03-06T13:01:11.013Z,4.77
2023-03-06T13:02:11.022Z,4.75
2023-03-06T13:03:11.003Z,4.78
2023-03-06T13:04:10.960Z,4.82
2023-03-06T13:05:10.951Z,4.80
2023-03-06T13:06:10.952Z,4.80
2023-03-06T13:07:10.930Z,4.78
2023-03-06T13:08:10.932Z,4.80
2023-03-06T13:09:10.926Z,4.82
2023-03-06T13:10:10.936Z,4.80
2023-03-06T13:11:10.882Z,4.80
2023-03-06T13:12:10.860Z,4.84
2023-03-06T13:13:10.849Z,4.87
2023-03-06T13:14:10.888Z,4.80
2023-03-06T13:15:10.831Z,4.77
2023-03-06T13:16:10.824Z,4.73
2023-03-06T13:17:10.829Z,4.68
2023-03-06T13:18:10.827Z,4.62
2023-03-06T13:19:10.799Z,4.56